Time;durP1;ratioP1;P1;durP2;ratioP2;P2;SDS_P1;SDS_P2;PMS_P1;PMS_P2;Temp;Humidity;BMP_temperature;BMP_pressure;BME280_temperature;BME280_humidity;BME280_pressure;Samples;Min_cycle;Max_cycle;Signal;HPM_P1;HPM_P2
2022/07/29 00:00:10;;;;;;;;;7.00;5.67;;;;;23.27;44.52;101258.09;5056064;28;58506;-72
2022/07/29 00:02:36;;;;;;;;;7.00;7.00;;;;;23.25;44.75;101255.47;5056779;28;45596;-72
2022/07/29 00:05:03;;;;;;;;;6.00;6.00;;;;;23.26;44.65;101256.34;5056514;28;45449;-71
2022/07/29 00:07:28;;;;;;;;;10.33;7.33;;;;;23.22;44.85;101247.50;5038251;28;45332;-71
2022/07/29 00:09:54;;;;;;;;;10.67;7.33;;;;;23.17;45.05;101246.78;5055892;28;61265;-70
2022/07/29 00:12:21;;;;;;;;;7.00;7.00;;;;;23.17;45.01;101248.56;5056336;28;53997;-72
2022/07/29 00:14:46;;;;;;;;;10.33;10.33;;;;;23.11;45.30;101240.72;5038642;28;46593;-70
2022/07/29 00:17:12;;;;;;;;;10.67;9.00;;;;;23.11;45.31;101240.72;5055564;28;63502;-71
2022/07/29 00:19:37;;;;;;;;;7.00;7.00;;;;;23.07;45.16;101233.69;5056037;28;57705;-70
2022/07/29 00:22:02;;;;;;;;;9.67;6.33;;;;;23.09;45.22;101245.28;5056475;28;45559;-72
2022/07/29 00:24:28;;;;;;;;;7.33;7.33;;;;;23.04;45.30;101234.66;5055608;28;65156;-71
2022/07/29 00:26:53;;;;;;;;;8.00;6.00;;;;;23.02;45.12;101238.34;5056260;28;45657;-72
2022/07/29 00:29:19;;;;;;;;;6.67;5.00;;;;;23.03;45.14;101237.41;5055448;28;63529;-71
2022/07/29 00:31:44;;;;;;;;;6.00;6.00;;;;;22.98;45.25;101237.56;5055674;28;55304;-70
2022/07/29 00:35:43;;;;;;;;;5.00;3.00;;;;;22.97;45.20;101233.13;5021569;28;47659;-71
2022/07/29 00:36:55;;;;;;;;;7.00;5.00;;;;;22.96;45.04;101236.75;5056022;28;45335;-72
2022/07/29 00:39:20;;;;;;;;;8.00;7.67;;;;;22.91;44.92;101226.13;5039821;28;45232;-73
2022/07/29 00:41:46;;;;;;;;;7.00;6.00;;;;;22.89;45.19;101219.03;5041827;28;45336;-72
2022/07/29 00:44:11;;;;;;;;;6.00;6.00;;;;;22.89;44.77;101230.66;5058559;28;71383;-70
2022/07/29 00:46:36;;;;;;;;;6.33;6.33;;;;;22.84;45.34;101223.66;5058224;28;67754;-72
2022/07/29 00:49:02;;;;;;;;;6.00;6.00;;;;;22.82;45.48;101222.84;5058814;28;56457;-70
2022/07/29 00:51:27;;;;;;;;;7.00;7.00;;;;;22.82;45.55;101228.22;5040832;28;62698;-71
2022/07/29 00:53:53;;;;;;;;;8.00;6.67;;;;;22.77;45.57;101225.69;5032853;28;64134;-71
2022/07/29 00:56:19;;;;;;;;;5.00;5.00;;;;;22.72;45.69;101225.81;5053053;28;58418;-70
2022/07/29 00:58:46;;;;;;;;;6.33;6.33;;;;;22.74;45.86;101229.38;5059592;28;45363;-70
2022/07/29 01:01:12;;;;;;;;;6.33;6.33;;;;;22.70;46.10;101224.13;5041211;28;45411;-71
2022/07/29 01:03:37;;;;;;;;;7.67;6.00;;;;;22.68;46.13;101223.28;5058553;28;65558;-71
2022/07/29 01:06:03;;;;;;;;;9.00;6.00;;;;;22.65;46.38;101220.69;5058702;28;51566;-70
2022/07/29 01:08:28;;;;;;;;;6.00;6.00;;;;;22.62;46.60;101224.34;5041156;28;45591;-72
2022/07/29 01:10:54;;;;;;;;;8.00;7.00;;;;;22.60;46.67;101218.16;5058582;28;54297;-71
2022/07/29 01:13:20;;;;;;;;;9.00;7.00;;;;;22.61;46.61;101224.41;5058111;28;69843;-70
2022/07/29 01:15:52;;;;;;;;;6.00;6.00;;;;;22.57;46.91;101214.69;5040726;28;45574;-70
2022/07/29 01:18:24;;;;;;;;;6.00;6.00;;;;;22.58;47.15;101228.06;5041548;28;45350;-72
2022/07/29 01:21:19;;;;;;;;;6.67;6.67;;;;;22.56;47.30;101226.38;5041220;28;45881;-71
2022/07/29 01:23:52;;;;;;;;;12.33;9.00;;;;;22.54;47.67;101229.13;5058763;28;47124;-70
2022/07/29 01:26:29;;;;;;;;;7.67;7.67;;;;;22.52;47.93;101230.97;5041112;28;45348;-70
2022/07/29 01:29:04;;;;;;;;;7.00;7.00;;;;;22.51;48.44;101231.03;5058841;28;45399;-71
2022/07/29 01:31:42;;;;;;;;;7.67;7.67;;;;;22.49;48.21;101223.88;5058797;28;45303;-70
2022/07/29 01:34:11;;;;;;;;;8.00;8.00;;;;;22.48;48.68;101230.22;5040791;28;47117;-71
2022/07/29 01:36:41;;;;;;;;;9.33;8.67;;;;;22.48;48.57;101223.94;5040779;28;45256;-71
2022/07/29 01:39:12;;;;;;;;;8.00;7.00;;;;;22.48;48.89;101227.50;5040743;28;45343;-70
2022/07/29 01:41:49;;;;;;;;;8.00;8.00;;;;;22.48;49.14;101237.41;5058685;28;45355;-72
2022/07/29 01:44:29;;;;;;;;;8.00;8.00;;;;;22.45;49.22;101232.97;5040394;28;46736;-72
2022/07/29 01:46:58;;;;;;;;;10.33;9.00;;;;;22.42;49.31;101232.19;5040122;28;45603;-71
2022/07/29 01:49:28;;;;;;;;;6.67;6.67;;;;;22.43;49.22;101218.72;5040577;28;45248;-71
2022/07/29 01:52:00;;;;;;;;;6.67;6.67;;;;;22.43;49.37;101225.91;5040029;28;45375;-71
2022/07/29 01:54:34;;;;;;;;;7.67;7.67;;;;;22.41;49.53;101225.94;5020024;28;48620;-71
2022/07/29 01:57:00;;;;;;;;;9.33;7.00;;;;;22.40;49.52;101224.19;5022775;28;45442;-72
2022/07/29 01:59:27;;;;;;;;;7.67;7.67;;;;;22.38;49.28;101234.13;5040398;28;45268;-71
2022/07/29 02:01:54;;;;;;;;;10.33;7.00;;;;;22.41;49.72;101235.81;5041087;28;45344;-72
2022/07/29 02:04:20;;;;;;;;;10.33;7.67;;;;;22.40;49.76;101237.63;5040412;28;45499;-71
2022/07/29 02:06:47;;;;;;;;;10.00;8.67;;;;;22.36;49.74;101227.88;5040370;28;45241;-72
2022/07/29 02:09:14;;;;;;;;;8.00;8.00;;;;;22.36;50.20;101233.25;5023414;28;45304;-71
2022/07/29 02:11:40;;;;;;;;;7.00;7.00;;;;;22.30;50.39;101236.16;5039746;28;61340;-71
2022/07/29 02:14:07;;;;;;;;;7.00;6.00;;;;;22.30;49.96;101243.34;5023337;28;46889;-71
2022/07/29 02:16:33;;;;;;;;;6.67;6.67;;;;;22.25;50.20;101237.22;5039977;28;45366;-70
2022/07/29 02:19:01;;;;;;;;;7.33;7.33;;;;;22.23;50.00;101240.84;5039971;28;45445;-72
2022/07/29 02:21:27;;;;;;;;;6.33;6.33;;;;;22.21;50.41;101242.72;5058291;28;45470;-71
2022/07/29 02:23:54;;;;;;;;;7.00;6.00;;;;;22.15;50.51;101245.56;5040045;28;46658;-71
2022/07/29 02:26:22;;;;;;;;;6.00;6.00;;;;;22.16;50.83;101252.72;5040236;28;45359;-72
2022/07/29 02:28:49;;;;;;;;;8.00;6.33;;;;;22.07;50.98;101236.84;5039883;28;45471;-71
2022/07/29 02:31:18;;;;;;;;;7.00;7.00;;;;;22.07;51.09;101241.34;5058140;28;45403;-72
2022/07/29 02:33:45;;;;;;;;;7.33;6.00;;;;;22.03;51.19;101243.22;5039568;28;46988;-70
2022/07/29 02:36:11;;;;;;;;;8.33;7.00;;;;;22.04;51.55;101246.78;5057840;28;45356;-70
2022/07/29 02:38:52;;;;;;;;;9.33;7.00;;;;;22.03;51.27;101247.72;5056863;28;65055;-71
2022/07/29 02:41:24;;;;;;;;;8.00;8.00;;;;;22.04;51.56;101254.84;5042262;28;45619;-70
2022/07/29 02:43:55;;;;;;;;;7.33;5.67;;;;;22.02;51.58;101248.66;5039625;28;45620;-72
2022/07/29 02:46:30;;;;;;;;;9.00;7.00;;;;;22.01;51.83;101249.59;5039189;28;45565;-71
2022/07/29 02:49:04;;;;;;;;;6.67;6.00;;;;;21.96;51.80;101249.72;5039627;28;45380;-70
2022/07/29 02:51:40;;;;;;;;;8.33;8.33;;;;;21.94;52.07;101257.84;5039743;28;45316;-71
2022/07/29 02:54:08;;;;;;;;;9.00;5.33;;;;;21.91;52.05;101257.03;5039118;28;48171;-72
2022/07/29 02:56:34;;;;;;;;;8.00;6.67;;;;;21.87;52.44;101252.66;5039064;28;45340;-71
2022/07/29 02:59:04;;;;;;;;;9.00;6.33;;;;;21.83;52.19;101259.06;5057793;28;45372;-71
2022/07/29 03:01:31;;;;;;;;;10.33;7.00;;;;;21.81;52.13;101252.84;5039493;28;45339;-71
2022/07/29 03:04:00;;;;;;;;;8.67;8.00;;;;;21.80;52.03;101254.66;5039334;28;46921;-71
2022/07/29 03:06:27;;;;;;;;;13.00;8.00;;;;;21.78;52.18;101253.81;5039391;28;45532;-71
2022/07/29 03:08:52;;;;;;;;;5.33;5.33;;;;;21.80;52.60;101260.03;5039432;28;45430;-70
2022/07/29 03:11:18;;;;;;;;;7.33;7.33;;;;;21.79;52.67;101263.66;5038666;28;60954;-71
2022/07/29 03:13:43;;;;;;;;;9.00;8.00;;;;;21.77;52.44;101262.81;5038604;28;64979;-72
2022/07/29 03:16:09;;;;;;;;;7.33;7.00;;;;;21.76;52.47;101261.03;5055967;28;70107;-72
2022/07/29 03:18:36;;;;;;;;;6.33;6.33;;;;;21.76;52.54;101270.91;5039243;28;45470;-70
2022/07/29 03:21:03;;;;;;;;;4.67;4.67;;;;;21.76;52.20;101268.22;5039390;28;45347;-72
2022/07/29 03:23:28;;;;;;;;;7.00;7.00;;;;;21.74;52.58;101273.66;5056992;28;46011;-71
2022/07/29 03:25:54;;;;;;;;;8.00;8.00;;;;;21.71;52.58;101257.59;5056823;28;45470;-70
2022/07/29 03:28:20;;;;;;;;;6.00;6.00;;;;;21.70;52.45;101266.59;5057239;28;45145;-71
2022/07/29 03:30:46;;;;;;;;;8.33;7.67;;;;;21.68;52.46;101265.78;5039487;28;45552;-70
2022/07/29 03:33:12;;;;;;;;;10.00;10.00;;;;;21.65;52.60;101266.72;5038961;28;45909;-72
2022/07/29 03:35:37;;;;;;;;;7.33;6.00;;;;;21.64;52.89;101266.78;5038789;28;45490;-71
2022/07/29 03:38:03;;;;;;;;;6.67;6.67;;;;;21.59;52.50;101258.84;5057140;28;45233;-70
2022/07/29 03:40:42;;;;;;;;;7.00;7.00;;;;;21.59;52.59;101269.59;5056410;28;56465;-72
2022/07/29 03:43:09;;;;;;;;;6.00;5.00;;;;;21.55;52.75;101259.84;5056699;28;46459;-71
2022/07/29 03:45:35;;;;;;;;;8.00;6.00;;;;;21.57;52.63;101267.84;5056460;28;45229;-71
2022/07/29 03:48:05;;;;;;;;;7.33;6.00;;;;;21.56;52.73;101272.34;5037843;28;62478;-71
2022/07/29 03:50:32;;;;;;;;;7.00;5.33;;;;;21.55;52.45;101272.38;5038904;28;45283;-71
2022/07/29 03:52:58;;;;;;;;;9.33;6.00;;;;;21.52;52.95;101267.09;5038625;28;45548;-71
2022/07/29 03:55:23;;;;;;;;;8.67;8.00;;;;;21.48;52.69;101266.31;5042547;28;68916;-70
2022/07/29 03:57:49;;;;;;;;;9.67;7.00;;;;;21.44;52.85;101261.94;5038009;28;64711;-70
2022/07/29 04:00:15;;;;;;;;;7.00;7.00;;;;;21.43;53.30;101270.94;5039033;28;45465;-71
2022/07/29 04:02:44;;;;;;;;;9.33;6.33;;;;;21.42;52.97;101274.53;5038574;28;45796;-71
2022/07/29 04:05:14;;;;;;;;;10.33;6.33;;;;;21.39;53.30;101277.28;5056666;28;45249;-71
2022/07/29 04:07:48;;;;;;;;;8.00;7.00;;;;;21.38;52.94;101279.09;5056670;28;45329;-70
2022/07/29 04:10:18;;;;;;;;;9.00;9.00;;;;;21.39;53.38;101269.25;5038827;28;45433;-71
2022/07/29 04:12:44;;;;;;;;;5.33;5.33;;;;;21.38;53.05;101283.59;5056210;28;46175;-70
2022/07/29 04:15:10;;;;;;;;;8.00;8.00;;;;;21.40;53.15;101277.25;5058987;28;45378;-72
2022/07/29 04:17:35;;;;;;;;;12.67;8.00;;;;;21.39;53.63;101282.66;5059851;28;45377;-71
2022/07/29 04:20:01;;;;;;;;;11.33;8.00;;;;;21.38;53.23;101289.84;5059783;28;51072;-71
2022/07/29 04:22:26;;;;;;;;;9.67;7.67;;;;;21.41;53.44;101284.41;5059186;28;68212;-70
2022/07/29 04:24:51;;;;;;;;;6.67;6.67;;;;;21.38;53.46;101270.16;5024609;28;62970;-71
2022/07/29 04:27:17;;;;;;;;;6.33;6.33;;;;;21.36;53.73;101278.28;5059460;28;50092;-71
2022/07/29 04:29:42;;;;;;;;;7.67;6.33;;;;;21.35;54.17;101280.97;5059860;28;58074;-70
2022/07/29 04:32:08;;;;;;;;;12.00;8.00;;;;;21.33;54.29;101282.84;5058925;28;64407;-72
2022/07/29 04:34:33;;;;;;;;;7.00;6.00;;;;;21.30;54.72;101281.09;5041726;28;45338;-71
2022/07/29 04:36:58;;;;;;;;;7.67;7.33;;;;;21.32;54.58;101287.34;5041825;28;45312;-70
2022/07/29 04:39:24;;;;;;;;;10.33;7.00;;;;;21.32;54.97;101284.66;5059159;28;55530;-70
2022/07/29 04:41:50;;;;;;;;;8.00;8.00;;;;;21.32;55.08;101279.28;5059322;28;45811;-71
2022/07/29 04:44:15;;;;;;;;;8.33;7.33;;;;;21.44;54.93;101295.06;5041441;28;45447;-71
2022/07/29 04:46:41;;;;;;;;;8.00;8.00;;;;;21.48;54.73;101292.31;5041384;28;45178;-72
2022/07/29 04:49:06;;;;;;;;;8.00;7.33;;;;;21.49;55.06;101291.38;5058902;28;58027;-70
2022/07/29 04:51:31;;;;;;;;;8.00;8.00;;;;;21.51;54.91;101285.03;5058417;28;69669;-70
2022/07/29 04:53:56;;;;;;;;;8.67;6.00;;;;;21.52;55.42;101289.50;5058949;28;45205;-69
2022/07/29 04:56:22;;;;;;;;;7.33;7.00;;;;;21.52;54.80;101292.19;5040508;28;56614;-71
2022/07/29 04:58:47;;;;;;;;;11.00;8.00;;;;;21.56;54.58;101295.66;5059657;28;45450;-71
2022/07/29 05:01:14;;;;;;;;;8.00;6.00;;;;;21.62;54.79;101300.84;5059199;28;46902;-71
2022/07/29 05:03:39;;;;;;;;;7.00;7.00;;;;;21.64;54.85;101291.84;5041324;28;45245;-70
2022/07/29 05:06:05;;;;;;;;;7.67;6.33;;;;;21.68;55.11;101303.41;5058957;28;45292;-71
2022/07/29 05:08:30;;;;;;;;;6.33;6.33;;;;;21.73;54.91;101309.50;5059253;28;45403;-69
2022/07/29 05:10:55;;;;;;;;;10.00;7.00;;;;;21.75;54.55;101301.41;5058805;28;46936;-70
2022/07/29 05:13:21;;;;;;;;;7.00;5.00;;;;;21.81;54.80;101304.81;5058777;28;59346;-71
2022/07/29 05:15:46;;;;;;;;;10.67;7.00;;;;;21.87;54.51;101307.31;5058057;28;64338;-69
2022/07/29 05:18:11;;;;;;;;;8.00;8.00;;;;;21.90;54.57;101304.56;5058686;28;55880;-72
2022/07/29 05:20:37;;;;;;;;;7.67;7.67;;;;;21.93;54.64;101301.75;5040558;28;56066;-73
2022/07/29 05:23:02;;;;;;;;;7.33;6.67;;;;;21.99;54.55;101303.41;5041064;28;46046;-70
2022/07/29 05:25:28;;;;;;;;;7.00;6.00;;;;;22.05;54.35;101307.72;5057950;28;45348;-71
2022/07/29 05:27:54;;;;;;;;;9.00;7.33;;;;;22.08;54.14;101313.88;5059286;28;45494;-71
2022/07/29 05:30:20;;;;;;;;;9.00;7.00;;;;;22.09;53.78;101310.28;5058586;28;46140;-70
2022/07/29 05:32:46;;;;;;;;;9.00;8.00;;;;;22.12;53.76;101303.97;5058657;28;45340;-71
2022/07/29 05:35:11;;;;;;;;;5.67;5.67;;;;;22.13;53.92;101306.59;5058950;28;45286;-69
2022/07/29 05:37:37;;;;;;;;;5.33;5.33;;;;;22.18;53.92;101304.66;5058964;28;45553;-72
2022/07/29 05:40:03;;;;;;;;;6.33;6.00;;;;;22.18;53.35;101301.09;5040511;28;46510;-70
2022/07/29 05:42:28;;;;;;;;;8.00;7.00;;;;;22.19;53.43;101303.72;5058654;28;45304;-71
2022/07/29 05:44:54;;;;;;;;;6.00;6.00;;;;;22.22;53.46;101306.34;5058431;28;45272;-71
2022/07/29 05:47:19;;;;;;;;;7.33;6.00;;;;;22.27;53.39;101319.66;5058532;28;45308;-70
2022/07/29 05:49:45;;;;;;;;;5.00;5.00;;;;;22.28;53.25;101305.28;5057422;28;67996;-70
2022/07/29 05:52:12;;;;;;;;;8.67;6.00;;;;;22.31;53.28;101309.66;5058705;28;45371;-71
2022/07/29 05:54:38;;;;;;;;;7.00;7.00;;;;;22.30;53.07;101318.69;5057860;28;45498;-71
2022/07/29 05:57:03;;;;;;;;;6.00;5.00;;;;;22.30;53.46;101316.88;5058294;28;45558;-70
2022/07/29 05:59:29;;;;;;;;;6.00;6.00;;;;;22.31;53.39;101313.25;5058229;28;45964;-69
2022/07/29 06:01:54;;;;;;;;;7.33;7.33;;;;;22.33;53.43;101319.47;5058536;28;45367;-70
2022/07/29 06:04:20;;;;;;;;;7.67;7.67;;;;;22.35;53.46;101320.28;5058566;28;45273;-70
2022/07/29 06:06:45;;;;;;;;;9.33;6.33;;;;;22.37;53.26;101314.88;5058610;28;45184;-71
2022/07/29 06:09:10;;;;;;;;;9.33;8.00;;;;;22.38;53.34;101322.03;5023366;28;47400;-70
2022/07/29 06:11:36;;;;;;;;;6.33;6.33;;;;;22.37;53.22;101322.94;5058385;28;58048;-70
2022/07/29 06:14:02;;;;;;;;;10.00;8.33;;;;;22.36;53.38;101329.25;5057759;28;59593;-69
2022/07/29 06:16:28;;;;;;;;;9.33;7.00;;;;;22.32;53.62;101322.19;5058093;28;45242;-70
2022/07/29 06:18:53;;;;;;;;;7.67;7.00;;;;;22.31;53.63;101337.44;5057906;28;46553;-70
2022/07/29 06:21:18;;;;;;;;;8.00;6.00;;;;;22.31;53.75;101325.81;5039504;28;66053;-70
2022/07/29 06:23:44;;;;;;;;;7.33;7.33;;;;;22.30;53.84;101333.00;5058220;28;45369;-70
2022/07/29 06:26:10;;;;;;;;;7.00;7.00;;;;;22.33;54.17;101334.75;5040531;28;45383;-70
2022/07/29 06:28:35;;;;;;;;;8.00;6.33;;;;;22.35;53.68;101333.75;5039714;28;46560;-71
2022/07/29 06:31:01;;;;;;;;;7.67;7.67;;;;;22.37;53.93;101341.78;5057342;28;65406;-71
2022/07/29 06:33:27;;;;;;;;;6.67;6.67;;;;;22.38;53.57;101339.06;5057931;28;45337;-72
2022/07/29 06:35:52;;;;;;;;;8.67;8.00;;;;;22.39;53.64;101342.63;5040196;28;45386;-70
2022/07/29 06:38:17;;;;;;;;;8.67;7.67;;;;;22.35;53.61;101339.13;5056191;28;71821;-72
2022/07/29 06:43:37;;;;;;;;;7.00;7.00;;;;;22.33;53.47;101341.00;5057938;28;45431;-70
2022/07/29 06:46:08;;;;;;;;;8.67;6.67;;;;;22.34;54.31;101342.75;5057664;28;45517;-71
2022/07/29 06:48:35;;;;;;;;;5.33;4.00;;;;;22.34;54.62;101347.25;5056920;28;46790;-71
2022/07/29 06:51:01;;;;;;;;;8.00;6.00;;;;;22.32;54.28;101341.94;5040099;28;45404;-70
2022/07/29 06:53:28;;;;;;;;;10.00;6.33;;;;;22.30;54.62;101345.56;5057353;28;45342;-71
2022/07/29 06:55:53;;;;;;;;;6.00;6.00;;;;;22.30;54.07;101348.28;5057579;28;45323;-70
2022/07/29 06:58:20;;;;;;;;;7.67;5.33;;;;;22.30;53.77;101349.16;5056603;28;64705;-71
2022/07/29 07:00:46;;;;;;;;;6.00;6.00;;;;;22.30;53.80;101350.97;5057315;28;45351;-71
2022/07/29 07:03:12;;;;;;;;;8.00;8.00;;;;;22.33;53.40;101353.56;5039419;28;45411;-71
2022/07/29 07:05:38;;;;;;;;;7.00;7.00;;;;;22.35;53.31;101360.66;5057805;28;45177;-71
2022/07/29 07:08:03;;;;;;;;;7.00;5.33;;;;;22.32;53.14;101355.38;5057166;28;45778;-71
2022/07/29 07:10:29;;;;;;;;;6.00;6.00;;;;;22.33;53.21;101357.16;5057040;28;45367;-71
2022/07/29 07:12:54;;;;;;;;;6.67;6.67;;;;;22.36;53.29;101362.41;5057654;28;45705;-70
2022/07/29 07:15:21;;;;;;;;;7.33;7.33;;;;;22.39;53.38;101356.97;5057274;28;45272;-70
2022/07/29 07:17:50;;;;;;;;;6.67;6.67;;;;;22.43;53.58;101368.53;5056886;28;46350;-69
2022/07/29 07:20:16;;;;;;;;;7.67;7.00;;;;;22.42;53.91;101356.84;5057162;28;45438;-71
2022/07/29 07:22:42;;;;;;;;;6.33;6.33;;;;;22.48;54.03;101366.56;5039270;28;45272;-70
2022/07/29 07:25:07;;;;;;;;;7.00;6.67;;;;;22.52;54.18;101364.66;5057016;28;52345;-69
2022/07/29 07:27:33;;;;;;;;;10.33;7.33;;;;;22.55;54.24;101362.75;5056666;28;46958;-70
2022/07/29 07:29:58;;;;;;;;;5.00;5.00;;;;;22.59;54.11;101360.88;5056905;28;48991;-70
2022/07/29 07:32:23;;;;;;;;;9.33;7.00;;;;;22.65;54.06;101364.25;5056280;28;58098;-71
2022/07/29 07:34:49;;;;;;;;;7.33;6.00;;;;;22.71;54.20;101368.56;5057482;28;45465;-70
2022/07/29 07:37:14;;;;;;;;;11.00;8.00;;;;;22.74;53.91;101360.38;5055792;28;70476;-71
2022/07/29 07:39:40;;;;;;;;;8.67;8.00;;;;;22.82;53.82;101366.41;5057023;28;45363;-72
2022/07/29 07:42:05;;;;;;;;;7.00;7.00;;;;;22.85;53.76;101362.72;5057007;28;45253;-70
2022/07/29 07:44:31;;;;;;;;;8.00;7.00;;;;;22.92;53.35;101367.94;5039229;28;45307;-71
2022/07/29 07:46:56;;;;;;;;;10.00;8.00;;;;;22.94;53.19;101362.47;5056299;28;45552;-70
2022/07/29 07:49:22;;;;;;;;;8.67;8.67;;;;;22.99;53.28;101364.09;5057153;28;61231;-70
2022/07/29 07:51:47;;;;;;;;;7.33;7.00;;;;;23.05;53.03;101372.91;5060655;28;45522;-71
2022/07/29 07:54:12;;;;;;;;;9.00;7.00;;;;;23.08;53.12;101370.13;5041411;28;58415;-69
2022/07/29 07:56:38;;;;;;;;;6.00;6.00;;;;;23.09;52.80;101375.47;5059310;28;62945;-69
2022/07/29 07:59:03;;;;;;;;;6.67;6.00;;;;;23.12;53.04;101374.50;5060421;28;45357;-71
2022/07/29 08:01:28;;;;;;;;;7.00;5.67;;;;;23.16;53.21;101366.25;5059789;28;52889;-70
2022/07/29 08:03:54;;;;;;;;;9.33;8.00;;;;;23.22;53.03;101375.94;5060045;28;48945;-72
2022/07/29 08:06:19;;;;;;;;;8.67;6.00;;;;;23.27;53.08;101365.88;5060133;28;46500;-70
2022/07/29 08:08:44;;;;;;;;;7.67;6.00;;;;;23.34;53.01;101370.16;5059873;28;45434;-71
2022/07/29 08:11:10;;;;;;;;;14.00;8.00;;;;;23.42;53.09;101373.47;5059423;28;58574;-71
2022/07/29 08:13:36;;;;;;;;;6.33;6.00;;;;;23.46;52.67;101371.56;5059352;28;62355;-71
2022/07/29 08:16:01;;;;;;;;;7.67;6.00;;;;;23.54;52.45;101372.16;5059567;28;46526;-70
2022/07/29 08:18:28;;;;;;;;;6.33;6.33;;;;;23.55;52.32;101368.56;5060111;28;45189;-71
2022/07/29 08:20:54;;;;;;;;;5.00;4.00;;;;;23.59;52.17;101370.19;5060178;28;45230;-69
2022/07/29 08:23:19;;;;;;;;;6.67;6.33;;;;;23.59;51.47;101372.88;5060146;28;45375;-71
2022/07/29 08:25:45;;;;;;;;;9.00;6.33;;;;;23.62;51.37;101367.41;5041867;28;46348;-70
2022/07/29 08:28:10;;;;;;;;;7.00;6.00;;;;;23.62;51.35;101359.31;5060201;28;45249;-72
2022/07/29 08:30:35;;;;;;;;;6.33;5.33;;;;;23.67;51.40;101362.75;5058996;28;64433;-69
2022/07/29 08:33:01;;;;;;;;;6.33;6.00;;;;;23.71;51.23;101361.72;5059610;28;51552;-70
2022/07/29 08:35:27;;;;;;;;;5.67;4.00;;;;;23.74;50.86;101360.72;5059426;28;64179;-71
2022/07/29 08:37:52;;;;;;;;;4.00;4.00;;;;;23.75;50.32;101365.19;5060466;28;45367;-70
2022/07/29 08:40:20;;;;;;;;;5.00;5.00;;;;;23.79;50.23;101364.13;5059960;28;45406;-69
2022/07/29 08:42:45;;;;;;;;;7.00;5.67;;;;;23.81;49.84;101362.28;5059874;28;45228;-70
2022/07/29 08:45:11;;;;;;;;;5.00;5.00;;;;;23.87;49.66;101358.50;5041167;28;45720;-69
2022/07/29 08:50:12;;;;;;;;;6.33;6.33;;;;;23.96;49.30;101364.41;4982786;22;45183;-70
2022/07/29 08:52:40;;;;;;;;;6.67;5.33;;;;;24.03;49.18;101357.00;5061995;28;45222;-71
2022/07/29 08:55:07;;;;;;;;;4.67;4.67;;;;;24.05;49.15;101358.69;5079290;28;46261;-71
2022/07/29 08:57:33;;;;;;;;;4.00;4.00;;;;;24.10;48.84;101354.94;5079742;28;45362;-70
2022/07/29 09:00:00;;;;;;;;;5.00;5.00;;;;;24.20;48.43;101361.78;5080293;28;45537;-71
2022/07/29 09:02:28;;;;;;;;;7.00;5.00;;;;;24.25;47.71;101366.06;5080020;28;45379;-69
2022/07/29 09:04:54;;;;;;;;;4.33;4.33;;;;;24.28;47.60;101360.53;5061333;28;47096;-70
2022/07/29 09:07:20;;;;;;;;;3.33;3.33;;;;;24.34;47.89;101353.13;5079594;28;45207;-69
2022/07/29 09:09:46;;;;;;;;;4.00;3.00;;;;;24.39;47.43;101357.47;5061325;28;45476;-72
2022/07/29 09:12:12;;;;;;;;;7.00;5.33;;;;;24.45;47.54;101354.56;5079583;28;45464;-70
2022/07/29 09:14:38;;;;;;;;;4.00;4.00;;;;;24.50;47.04;101348.94;5061095;28;46658;-70
2022/07/29 09:17:04;;;;;;;;;4.00;2.00;;;;;24.55;46.78;101353.25;5079159;28;45546;-71
2022/07/29 09:19:37;;;;;;;;;5.00;5.00;;;;;24.61;46.73;101357.53;5061094;28;45347;-71
2022/07/29 09:22:06;;;;;;;;;5.00;4.00;;;;;24.67;46.36;101348.31;5061781;28;45442;-70
2022/07/29 09:24:42;;;;;;;;;6.33;5.00;;;;;24.75;46.44;101356.97;5079074;28;45895;-72
2022/07/29 09:27:17;;;;;;;;;3.33;3.33;;;;;24.77;45.35;101352.41;5079115;28;45173;-70
2022/07/29 09:29:43;;;;;;;;;3.33;3.33;;;;;24.83;46.02;101346.75;5079015;28;45236;-71
2022/07/29 09:32:09;;;;;;;;;9.00;4.33;;;;;24.88;45.68;101358.25;5078399;28;59413;-70
2022/07/29 09:34:35;;;;;;;;;7.00;4.00;;;;;24.91;45.82;101354.53;5079102;28;46147;-70
2022/07/29 09:37:00;;;;;;;;;4.67;3.00;;;;;24.98;45.98;101358.75;5059908;28;65579;-72
2022/07/29 09:39:31;;;;;;;;;4.00;4.00;;;;;25.02;46.48;101347.75;5078327;28;64439;-71
2022/07/29 09:41:59;;;;;;;;;5.67;4.00;;;;;25.12;45.42;101353.69;5060733;28;45267;-71
2022/07/29 09:44:25;;;;;;;;;4.00;4.00;;;;;25.15;44.93;101350.00;5060801;28;45671;-70
2022/07/29 09:47:07;;;;;;;;;4.00;4.00;;;;;25.21;45.81;101352.44;5078465;28;45462;-71
2022/07/29 09:49:49;;;;;;;;;4.33;3.33;;;;;25.26;45.91;101348.63;5078687;28;45360;-70
2022/07/29 09:52:15;;;;;;;;;3.67;3.67;;;;;25.37;45.31;101364.38;5079014;28;45437;-71
2022/07/29 09:54:40;;;;;;;;;5.00;3.67;;;;;25.41;45.56;101354.28;5059922;28;46745;-70
2022/07/29 09:57:12;;;;;;;;;5.33;3.67;;;;;25.44;44.99;101354.19;5059751;28;73445;-70
2022/07/29 09:59:38;;;;;;;;;4.00;4.00;;;;;25.48;44.66;101361.22;5078820;28;45275;-71
2022/07/29 10:02:12;;;;;;;;;4.00;3.33;;;;;25.49;44.39;101352.16;5060731;28;45521;-70
2022/07/29 10:04:42;;;;;;;;;4.67;4.00;;;;;25.54;44.37;101353.72;5060555;28;45898;-71
2022/07/29 10:07:07;;;;;;;;;3.67;3.00;;;;;25.59;44.97;101354.41;5078557;28;45437;-71
2022/07/29 10:09:34;;;;;;;;;4.33;3.00;;;;;25.60;44.59;101345.34;5078335;28;45234;-70
2022/07/29 10:12:25;;;;;;;;;4.00;4.00;;;;;25.73;44.32;101361.94;5078185;28;45418;-71
2022/07/29 10:14:51;;;;;;;;;4.67;3.00;;;;;25.75;43.77;101353.78;5074148;28;47555;-70
2022/07/29 10:17:18;;;;;;;;;3.33;3.33;;;;;25.81;42.91;101361.63;5078151;28;45210;-71
2022/07/29 10:19:43;;;;;;;;;3.00;3.00;;;;;25.83;43.55;101351.59;5078648;28;45245;-70
2022/07/29 10:22:10;;;;;;;;;3.33;3.33;;;;;25.89;43.37;101361.25;5059718;28;60710;-70
2022/07/29 10:24:37;;;;;;;;;4.00;4.00;;;;;25.93;43.43;101354.78;5078156;28;46230;-70
2022/07/29 10:27:07;;;;;;;;;3.33;3.00;;;;;25.96;42.83;101358.22;5078272;28;45404;-72
2022/07/29 10:29:33;;;;;;;;;4.33;4.00;;;;;25.98;42.88;101361.75;5078372;28;45340;-69
2022/07/29 10:32:02;;;;;;;;;7.33;4.33;;;;;26.03;42.75;101357.00;5060542;28;45326;-70
2022/07/29 10:34:45;;;;;;;;;3.00;3.00;;;;;26.05;43.24;101356.94;5078324;28;46895;-70
2022/07/29 10:37:20;;;;;;;;;5.00;3.33;;;;;26.11;42.75;101356.66;5043132;28;46225;-71
2022/07/29 10:41:26;;;;;;;;;3.00;3.00;;;;;26.19;42.62;101359.00;5059908;28;45268;-71
2022/07/29 10:42:53;;;;;;;;;4.00;4.00;;;;;26.22;42.40;101348.94;5078137;28;45529;-70
2022/07/29 10:45:18;;;;;;;;;4.00;4.00;;;;;26.29;42.33;101346.81;5059234;28;46599;-70
2022/07/29 10:47:44;;;;;;;;;4.33;3.67;;;;;26.33;42.42;101357.44;5077737;28;49988;-72
2022/07/29 10:50:10;;;;;;;;;3.00;3.00;;;;;26.38;42.06;101349.09;5076086;28;57652;-69
2022/07/29 10:52:54;;;;;;;;;5.00;3.67;;;;;26.43;42.17;101355.22;5059996;28;45374;-72
2022/07/29 10:55:33;;;;;;;;;6.67;5.00;;;;;26.45;42.05;101347.00;5077044;28;46168;-71
2022/07/29 10:58:11;;;;;;;;;3.33;1.00;;;;;26.47;41.36;101347.81;5059697;28;45495;-70
2022/07/29 11:00:36;;;;;;;;;6.33;5.00;;;;;26.50;42.11;101347.69;5078060;28;45475;-71
2022/07/29 11:03:02;;;;;;;;;5.00;3.00;;;;;26.55;42.23;101340.22;5059946;28;45585;-70
2022/07/29 11:05:30;;;;;;;;;4.00;4.00;;;;;26.69;41.37;101354.00;5077900;28;46414;-71
2022/07/29 11:08:13;;;;;;;;;6.33;3.33;;;;;26.82;41.83;101351.56;5059337;28;45445;-71
2022/07/29 11:10:40;;;;;;;;;3.00;3.00;;;;;26.91;41.39;101348.41;5077856;28;45346;-70
2022/07/29 11:13:05;;;;;;;;;3.33;3.00;;;;;26.96;41.23;101350.91;5077903;28;45460;-73
2022/07/29 11:15:54;;;;;;;;;5.67;5.67;;;;;27.04;40.55;101354.97;5077151;28;45901;-71
2022/07/29 11:18:20;;;;;;;;;3.00;3.00;;;;;27.10;40.72;101351.09;5077542;28;45228;-70
2022/07/29 11:20:49;;;;;;;;;5.33;4.00;;;;;27.07;40.94;101333.19;5025845;28;45362;-71
2022/07/29 11:23:27;;;;;;;;;3.00;3.00;;;;;27.10;40.83;101342.97;5067181;28;45233;-71
2022/07/29 11:26:20;;;;;;;;;3.00;3.00;;;;;27.15;40.80;101352.63;5076887;28;46373;-71
2022/07/29 11:29:02;;;;;;;;;3.33;3.33;;;;;27.22;40.51;101349.59;5077236;28;45317;-71
2022/07/29 11:31:44;;;;;;;;;4.00;4.00;;;;;27.29;40.76;101349.25;5077586;28;45310;-71